Time;durP1;ratioP1;P1;durP2;ratioP2;P2;SDS_P1;SDS_P2;PMS_P1;PMS_P2;Temp;Humidity;BMP_temperature;BMP_pressure;BME280_temperature;BME280_humidity;BME280_pressure;Samples;Min_cycle;Max_cycle;Signal;HPM_P1;HPM_P2
2021/12/12 00:00:50;;;;;;;51.08;23.90;;;3.60;99.90;;;;;;5071635;28;20044;-80
2021/12/12 00:03:31;;;;;;;40.08;23.02;;;2.20;99.90;;;;;;5057685;28;20045;-82
2021/12/12 00:05:58;;;;;;;40.47;22.35;;;3.60;99.90;;;;;;5068011;28;20075;-84
2021/12/12 00:08:25;;;;;;;47.45;23.45;;;3.70;99.90;;;;;;5061502;28;20459;-85
2021/12/12 00:10:55;;;;;;;39.58;22.25;;;3.70;99.90;;;;;;5074115;28;20044;-84
2021/12/12 00:13:31;;;;;;;44.72;24.30;;;3.70;99.90;;;;;;5074798;28;20465;-81
2021/12/12 00:15:57;;;;;;;44.47;23.02;;;3.60;99.90;;;;;;5050601;28;20073;-85
2021/12/12 00:18:23;;;;;;;45.20;22.38;;;4.80;99.90;;;;;;5073972;28;20542;-79
2021/12/12 00:20:49;;;;;;;46.20;23.30;;;2.50;99.90;;;;;;5089909;28;20044;-83
2021/12/12 00:23:16;;;;;;;38.72;22.55;;;3.80;99.90;;;;;;5092113;28;20031;-84
2021/12/12 00:25:47;;;;;;;45.17;22.77;;;3.60;99.90;;;;;;5065930;28;20444;-84
2021/12/12 00:28:15;;;;;;;41.38;22.10;;;3.70;99.90;;;;;;5080177;28;20057;-81
2021/12/12 00:30:42;;;;;;;38.78;22.55;;;3.80;99.90;;;;;;5083878;28;20446;-80
2021/12/12 00:33:09;;;;;;;40.75;23.58;;;3.80;99.90;;;;;;5092045;28;20131;-80
2021/12/12 00:35:35;;;;;;;42.40;23.15;;;3.80;99.90;;;;;;5070158;28;20058;-82
2021/12/12 00:38:07;;;;;;;43.15;22.50;;;3.50;99.90;;;;;;5096565;28;20087;-80
2021/12/12 00:40:37;;;;;;;38.40;22.52;;;3.60;99.90;;;;;;5072304;28;20040;-84
2021/12/12 00:43:17;;;;;;;41.38;21.80;;;3.80;99.90;;;;;;5074597;28;20050;-85
2021/12/12 00:45:43;;;;;;;42.17;21.65;;;3.80;99.90;;;;;;5072969;28;20054;-80
2021/12/12 00:48:08;;;;;;;39.53;23.33;;;3.90;99.90;;;;;;5057604;28;20034;-79
2021/12/12 00:50:38;;;;;;;35.63;21.63;;;3.80;99.90;;;;;;5062268;28;20050;-81
2021/12/12 00:53:07;;;;;;;41.25;21.88;;;3.90;99.90;;;;;;5074425;28;20046;-79
2021/12/12 00:55:37;;;;;;;40.10;21.17;;;3.90;99.90;;;;;;5081438;28;20037;-83
2021/12/12 00:58:08;;;;;;;44.10;22.92;;;6.00;99.90;;;;;;5063273;28;20069;-79
2021/12/12 01:00:42;;;;;;;39.40;23.05;;;3.90;99.90;;;;;;5080022;28;20042;-85
2021/12/12 01:03:10;;;;;;;43.17;23.33;;;3.90;99.90;;;;;;5091338;28;20055;-84
2021/12/12 01:05:38;;;;;;;38.88;22.63;;;3.90;99.90;;;;;;5071035;28;20126;-82
2021/12/12 01:08:07;;;;;;;43.00;22.25;;;4.00;99.90;;;;;;5079301;28;20124;-80
2021/12/12 01:10:39;;;;;;;50.00;24.25;;;3.90;99.90;;;;;;5077659;28;20057;-80
2021/12/12 01:13:07;;;;;;;40.67;23.48;;;3.90;99.90;;;;;;5090932;28;20054;-81
2021/12/12 01:15:50;;;;;;;40.75;23.27;;;3.90;99.90;;;;;;5072277;28;20131;-79
2021/12/12 01:18:19;;;;;;;39.10;22.20;;;4.00;99.90;;;;;;5057701;28;20054;-85
2021/12/12 01:20:52;;;;;;;36.78;21.45;;;4.00;99.90;;;;;;5084773;28;20049;-85
2021/12/12 01:23:37;;;;;;;48.10;22.85;;;4.00;99.90;;;;;;5080193;28;20086;-80
2021/12/12 01:26:07;;;;;;;41.28;23.00;;;4.00;99.90;;;;;;5052274;28;20469;-83
2021/12/12 01:28:35;;;;;;;40.20;22.35;;;4.00;99.90;;;;;;5081530;28;20042;-85
2021/12/12 01:31:05;;;;;;;42.05;22.98;;;4.00;99.90;;;;;;5094762;28;20050;-84
2021/12/12 01:33:35;;;;;;;42.78;23.58;;;4.00;99.90;;;;;;5085390;28;20045;-80
2021/12/12 01:36:06;;;;;;;41.97;23.08;;;4.00;99.90;;;;;;5094599;28;20182;-80
2021/12/12 01:38:55;;;;;;;41.92;23.75;;;4.00;99.90;;;;;;5087281;28;21086;-84
2021/12/12 01:41:34;;;;;;;39.90;22.85;;;4.00;99.90;;;;;;5073243;28;20083;-79
2021/12/12 01:44:09;;;;;;;44.72;23.15;;;4.00;99.90;;;;;;5070408;28;20051;-80
2021/12/12 01:46:41;;;;;;;45.70;22.98;;;4.00;99.90;;;;;;5074426;28;20083;-84
2021/12/12 01:49:19;;;;;;;44.67;22.70;;;4.00;99.90;;;;;;5081981;28;20083;-79
2021/12/12 01:51:47;;;;;;;43.95;21.65;;;4.00;99.90;;;;;;5072947;28;20408;-86
2021/12/12 01:54:16;;;;;;;43.35;21.92;;;4.00;99.90;;;;;;5077288;28;20578;-85
2021/12/12 01:56:53;;;;;;;38.25;22.83;;;4.00;99.90;;;;;;5090907;28;20539;-81
2021/12/12 01:59:21;;;;;;;41.95;23.33;;;4.00;99.90;;;;;;5094115;28;20574;-86
2021/12/12 02:02:00;;;;;;;44.78;23.75;;;4.10;99.90;;;;;;5065363;28;20052;-83
2021/12/12 02:04:29;;;;;;;49.47;22.55;;;4.10;99.90;;;;;;5078712;28;20106;-81
2021/12/12 02:06:55;;;;;;;43.13;23.05;;;4.10;99.90;;;;;;5094983;28;20108;-79
2021/12/12 02:09:23;;;;;;;43.60;22.73;;;4.10;99.90;;;;;;5093580;28;20039;-79
2021/12/12 02:11:53;;;;;;;49.42;22.95;;;4.00;99.90;;;;;;5081452;28;20383;-85
2021/12/12 02:14:21;;;;;;;41.90;22.05;;;4.10;99.90;;;;;;5094833;28;20044;-83
2021/12/12 02:16:55;;;;;;;43.55;23.55;;;4.10;99.90;;;;;;5072034;28;20045;-82
2021/12/12 02:19:30;;;;;;;44.47;21.30;;;4.10;99.90;;;;;;5093820;28;20040;-83
2021/12/12 02:22:07;;;;;;;44.38;23.05;;;4.20;99.90;;;;;;5070248;28;20039;-80
2021/12/12 02:35:07;;;;;;;39.15;20.85;;;4.10;99.90;;;;;;5092361;28;20156;-80
2021/12/12 02:35:49;;;;;;;40.17;21.00;;;4.30;99.90;;;;;;5089194;28;20047;-85
2021/12/12 02:38:28;;;;;;;36.08;20.58;;;4.30;99.90;;;;;;5075300;28;20392;-85
2021/12/12 02:40:58;;;;;;;39.78;19.75;;;4.30;99.90;;;;;;5068862;28;20077;-82
2021/12/12 02:43:27;;;;;;;36.95;20.00;;;4.30;99.90;;;;;;5076243;28;20080;-85
2021/12/12 02:45:55;;;;;;;35.90;19.50;;;4.30;99.90;;;;;;5082025;28;20054;-83
2021/12/12 02:48:28;;;;;;;40.15;20.23;;;4.30;99.90;;;;;;5081256;28;20678;-81
2021/12/12 02:50:56;;;;;;;36.00;19.63;;;4.40;99.90;;;;;;5085688;28;20076;-81
2021/12/12 02:53:43;;;;;;;41.22;20.63;;;4.30;99.90;;;;;;5075746;28;20081;-82
2021/12/12 02:56:13;;;;;;;37.60;19.08;;;4.40;99.90;;;;;;5118647;27;20097;-87
2021/12/12 02:58:40;;;;;;;45.75;20.45;;;4.40;99.90;;;;;;5072876;28;20142;-84
2021/12/12 03:01:26;;;;;;;36.28;19.40;;;4.50;99.90;;;;;;5082696;28;20046;-86
2021/12/12 03:03:54;;;;;;;37.17;19.45;;;4.50;99.90;;;;;;5090677;28;20051;-86
2021/12/12 03:06:24;;;;;;;42.13;19.08;;;4.40;99.90;;;;;;5093726;28;20040;-82
2021/12/12 03:08:53;;;;;;;40.20;20.17;;;4.50;99.90;;;;;;5082179;28;20403;-86
2021/12/12 03:11:19;;;;;;;39.22;18.80;;;4.50;99.90;;;;;;5075824;28;20401;-79
2021/12/12 03:13:46;;;;;;;35.97;16.35;;;4.50;99.90;;;;;;5066823;28;20129;-86
2021/12/12 03:16:12;;;;;;;35.92;17.92;;;6.00;99.90;;;;;;5078340;28;20054;-85
2021/12/12 03:18:45;;;;;;;34.80;17.42;;;4.40;99.90;;;;;;5062424;28;20092;-82
2021/12/12 03:21:17;;;;;;;40.45;16.70;;;4.10;99.90;;;;;;5080991;28;20049;-85
2021/12/12 03:23:48;;;;;;;26.00;15.45;;;4.60;99.90;;;;;;5083557;28;20050;-85
2021/12/12 03:26:17;;;;;;;35.17;15.45;;;4.50;99.90;;;;;;5075727;28;20479;-85
2021/12/12 03:28:47;;;;;;;28.83;15.85;;;4.60;99.90;;;;;;5077070;28;20120;-80
2021/12/12 03:31:17;;;;;;;30.65;15.40;;;4.60;99.90;;;;;;5064893;28;20042;-78
2021/12/12 03:33:43;;;;;;;29.48;15.57;;;4.70;99.90;;;;;;5082652;28;20034;-83
2021/12/12 03:36:11;;;;;;;30.25;14.55;;;4.60;99.90;;;;;;5092794;28;20047;-78
2021/12/12 03:38:41;;;;;;;23.02;13.98;;;4.80;99.90;;;;;;5090469;28;20043;-78
2021/12/12 03:41:12;;;;;;;25.65;14.23;;;4.80;99.90;;;;;;5067193;28;20091;-84
2021/12/12 03:43:37;;;;;;;30.67;14.90;;;4.70;99.90;;;;;;5061728;28;20095;-83
2021/12/12 03:46:06;;;;;;;25.27;14.10;;;4.70;99.90;;;;;;5068046;28;20032;-85
2021/12/12 03:48:34;;;;;;;28.02;13.55;;;4.70;99.90;;;;;;5092255;28;20078;-80
2021/12/12 03:51:05;;;;;;;33.50;14.73;;;4.70;99.90;;;;;;5083382;28;20050;-84
2021/12/12 03:53:34;;;;;;;22.13;13.35;;;4.80;99.90;;;;;;5079606;28;20042;-84
2021/12/12 03:55:59;;;;;;;27.30;14.55;;;4.70;99.90;;;;;;5066904;28;20095;-85
2021/12/12 03:58:25;;;;;;;26.58;13.35;;;4.60;99.90;;;;;;5074979;28;20042;-84
2021/12/12 04:01:13;;;;;;;22.98;13.85;;;4.70;99.90;;;;;;5069948;28;20071;-84
2021/12/12 04:03:40;;;;;;;18.65;11.38;;;4.70;99.90;;;;;;5061179;28;20187;-79
2021/12/12 04:06:10;;;;;;;22.45;12.20;;;4.70;99.90;;;;;;5095446;28;20048;-83
2021/12/12 04:08:40;;;;;;;19.45;11.88;;;4.70;99.90;;;;;;5076496;28;20048;-80
2021/12/12 04:11:13;;;;;;;18.52;11.65;;;4.70;99.90;;;;;;5057471;28;20477;-79
2021/12/12 04:13:41;;;;;;;18.50;10.98;;;4.70;99.90;;;;;;5062056;28;20787;-85
2021/12/12 04:16:08;;;;;;;23.83;11.73;;;4.80;99.90;;;;;;5067991;28;20083;-80
2021/12/12 04:18:35;;;;;;;18.02;11.32;;;4.80;99.90;;;;;;5058592;28;20046;-83
2021/12/12 04:21:00;;;;;;;23.33;13.02;;;4.80;99.90;;;;;;5074364;28;20061;-80
2021/12/12 04:23:27;;;;;;;17.02;10.88;;;4.70;99.90;;;;;;5057103;28;20042;-84
2021/12/12 04:26:06;;;;;;;16.02;10.93;;;4.70;99.90;;;;;;5075848;28;20094;-81
2021/12/12 04:28:32;;;;;;;15.25;9.93;;;4.70;99.90;;;;;;5058120;28;20107;-84
2021/12/12 04:30:57;;;;;;;20.95;10.95;;;4.80;99.90;;;;;;5074329;28;20067;-86
2021/12/12 04:33:23;;;;;;;14.95;9.73;;;4.80;99.90;;;;;;5074566;28;20880;-79
2021/12/12 04:35:48;;;;;;;14.98;9.50;;;5.10;99.90;;;;;;5067713;28;20083;-84
2021/12/12 04:38:14;;;;;;;18.50;10.00;;;4.70;99.90;;;;;;5090867;28;20069;-84
2021/12/12 04:40:40;;;;;;;17.60;12.38;;;4.70;99.90;;;;;;5053793;28;20199;-85
2021/12/12 04:43:05;;;;;;;15.02;9.40;;;4.70;99.90;;;;;;5057288;28;20065;-84
2021/12/12 04:45:52;;;;;;;15.43;9.65;;;4.80;99.90;;;;;;5074073;28;20561;-85
2021/12/12 04:51:20;;;;;;;15.57;8.82;;;4.80;99.90;;;;;;5067449;28;20050;-80
2021/12/12 04:53:59;;;;;;;10.57;8.52;;;4.80;99.90;;;;;;5065371;28;20046;-78
2021/12/12 04:56:28;;;;;;;16.50;9.38;;;4.80;99.90;;;;;;5074213;28;20034;-84
2021/12/12 04:59:16;;;;;;;10.25;8.10;;;4.70;99.90;;;;;;5069332;28;20041;-84
2021/12/12 05:02:03;;;;;;;11.15;8.57;;;4.80;99.90;;;;;;5087680;28;20043;-79
2021/12/12 05:05:06;;;;;;;12.23;8.10;;;4.80;99.90;;;;;;5073944;28;20042;-79
2021/12/12 05:07:42;;;;;;;12.27;7.78;;;4.80;99.90;;;;;;5078065;28;20119;-81
2021/12/12 05:10:14;;;;;;;8.43;7.07;;;4.90;99.90;;;;;;5087242;28;20071;-81
2021/12/12 05:12:46;;;;;;;11.65;8.40;;;4.80;99.90;;;;;;5093017;28;20040;-81
2021/12/12 05:15:26;;;;;;;13.48;9.68;;;4.80;99.90;;;;;;5083728;28;20391;-78
2021/12/12 05:18:01;;;;;;;12.20;7.95;;;4.80;99.90;;;;;;5068254;28;20048;-84
2021/12/12 05:20:31;;;;;;;8.07;6.72;;;4.90;99.90;;;;;;5086306;28;20100;-80
2021/12/12 05:23:00;;;;;;;11.63;8.27;;;4.90;99.90;;;;;;5075452;28;20158;-84
2021/12/12 05:25:31;;;;;;;8.18;6.85;;;4.90;99.90;;;;;;5094784;28;20119;-81
2021/12/12 05:28:00;;;;;;;11.95;7.05;;;4.90;99.90;;;;;;5080888;28;20509;-81
2021/12/12 05:30:29;;;;;;;11.60;7.78;;;4.90;99.90;;;;;;5102385;28;20380;-82
2021/12/12 05:32:55;;;;;;;6.85;6.15;;;5.00;99.90;;;;;;5090446;28;20067;-84
2021/12/12 05:35:30;;;;;;;8.50;7.38;;;5.00;99.90;;;;;;5082873;28;20492;-85
2021/12/12 05:37:56;;;;;;;8.82;6.90;;;5.00;99.90;;;;;;5091893;28;20552;-83
2021/12/12 05:40:25;;;;;;;13.70;8.07;;;5.00;99.90;;;;;;5094030;28;20082;-85
2021/12/12 05:42:53;;;;;;;9.35;8.45;;;5.00;99.90;;;;;;5075673;28;20409;-81
2021/12/12 05:45:18;;;;;;;7.57;5.68;;;5.00;99.90;;;;;;5077485;28;20104;-84
2021/12/12 05:47:44;;;;;;;11.30;9.13;;;5.00;99.90;;;;;;5090373;28;20039;-83
2021/12/12 05:50:12;;;;;;;11.95;9.48;;;5.00;99.90;;;;;;5084923;28;20039;-82
2021/12/12 05:52:37;;;;;;;11.18;8.77;;;5.00;99.90;;;;;;5082101;28;20489;-83
2021/12/12 05:55:06;;;;;;;14.10;9.73;;;5.10;99.90;;;;;;5076866;28;20123;-79
2021/12/12 05:57:33;;;;;;;12.95;10.13;;;5.10;99.90;;;;;;5101159;28;20051;-85
2021/12/12 05:59:59;;;;;;;13.32;10.00;;;5.10;99.90;;;;;;5082608;28;20430;-84
2021/12/12 06:02:26;;;;;;;15.10;10.00;;;5.10;99.90;;;;;;5093544;28;20044;-83
2021/12/12 06:04:56;;;;;;;13.07;9.93;;;5.10;99.90;;;;;;5068182;28;20047;-78
2021/12/12 06:07:22;;;;;;;12.75;10.48;;;5.20;99.90;;;;;;5076951;28;20094;-80
2021/12/12 06:09:49;;;;;;;11.98;9.90;;;5.10;99.90;;;;;;5083060;28;20137;-79
2021/12/12 06:12:16;;;;;;;12.23;9.88;;;5.20;99.90;;;;;;5079458;28;20037;-85
2021/12/12 06:14:43;;;;;;;12.77;8.90;;;5.20;99.90;;;;;;5081314;28;20089;-85
2021/12/12 06:17:12;;;;;;;13.60;9.48;;;5.20;99.90;;;;;;5082808;28;20039;-82
2021/12/12 06:19:40;;;;;;;12.00;9.90;;;5.20;99.90;;;;;;5083146;28;20049;-83
2021/12/12 06:22:08;;;;;;;12.93;10.10;;;5.20;99.90;;;;;;5126982;27;20092;-83
2021/12/12 06:24:38;;;;;;;13.48;9.63;;;5.20;99.90;;;;;;5076752;28;20126;-82
2021/12/12 06:27:17;;;;;;;14.32;11.23;;;5.20;99.90;;;;;;5076672;28;20125;-79
2021/12/12 06:29:46;;;;;;;18.90;12.30;;;5.30;99.90;;;;;;5078133;28;20041;-79
2021/12/12 06:32:13;;;;;;;14.63;11.15;;;5.20;99.90;;;;;;5080174;28;20035;-83
2021/12/12 06:34:39;;;;;;;12.90;11.45;;;5.50;99.90;;;;;;5060273;28;20645;-81
2021/12/12 06:37:05;;;;;;;11.10;10.00;;;5.40;99.90;;;;;;5076120;28;20042;-83
2021/12/12 06:39:31;;;;;;;11.60;10.13;;;5.40;99.90;;;;;;5083315;28;20102;-82
2021/12/12 06:41:57;;;;;;;11.48;10.27;;;4.80;99.90;;;;;;5090558;28;20040;-83
2021/12/12 06:44:23;;;;;;;13.77;11.75;;;5.50;99.90;;;;;;5077045;28;20037;-80
2021/12/12 06:46:49;;;;;;;15.27;12.27;;;5.40;99.90;;;;;;5083000;28;20506;-84
2021/12/12 06:49:17;;;;;;;15.82;11.88;;;5.50;99.90;;;;;;5099088;28;20040;-82
2021/12/12 06:51:48;;;;;;;14.95;11.93;;;5.50;99.90;;;;;;5064908;28;20058;-83
2021/12/12 06:54:16;;;;;;;15.77;12.18;;;5.50;99.90;;;;;;5076037;28;20033;-83
2021/12/12 06:56:42;;;;;;;15.93;11.98;;;5.40;99.90;;;;;;5076535;28;20050;-80
2021/12/12 06:59:08;;;;;;;14.38;11.98;;;5.50;99.90;;;;;;5075516;28;20043;-79
2021/12/12 07:01:34;;;;;;;11.38;9.77;;;5.60;99.90;;;;;;5093401;28;20074;-78
2021/12/12 07:04:02;;;;;;;17.60;12.20;;;5.50;99.90;;;;;;5079954;28;20035;-85
2021/12/12 07:06:29;;;;;;;15.27;11.70;;;5.50;99.90;;;;;;5075542;28;20113;-83
2021/12/12 07:09:03;;;;;;;12.20;10.80;;;5.60;99.90;;;;;;5085993;28;20077;-85
2021/12/12 07:11:29;;;;;;;14.32;11.60;;;5.50;99.90;;;;;;5075927;28;20444;-81
2021/12/12 07:13:56;;;;;;;13.27;11.32;;;5.80;99.90;;;;;;5061196;28;20570;-81
2021/12/12 07:16:23;;;;;;;9.25;7.75;;;5.60;99.90;;;;;;5058946;28;20095;-84
2021/12/12 07:18:50;;;;;;;15.50;11.52;;;5.70;99.90;;;;;;5063724;28;20442;-79
2021/12/12 07:21:17;;;;;;;12.13;10.82;;;5.70;99.90;;;;;;5092208;28;20085;-83
2021/12/12 07:23:45;;;;;;;14.20;11.77;;;5.70;99.90;;;;;;5075211;28;20050;-78
2021/12/12 07:26:13;;;;;;;15.63;12.05;;;5.70;99.90;;;;;;5073823;28;20496;-80
2021/12/12 07:28:40;;;;;;;14.85;11.55;;;5.70;99.90;;;;;;5092999;28;20048;-81
2021/12/12 07:31:12;;;;;;;15.52;12.30;;;5.70;99.90;;;;;;5092465;28;20040;-85
2021/12/12 07:33:38;;;;;;;13.30;10.02;;;5.70;99.90;;;;;;5082569;28;20426;-85
2021/12/12 07:36:08;;;;;;;112.97;83.65;;;5.70;99.90;;;;;;5074720;28;20035;-79
2021/12/12 07:38:35;;;;;;;15.95;12.52;;;5.80;99.90;;;;;;5092422;28;20376;-83
2021/12/12 07:41:03;;;;;;;18.17;12.27;;;5.80;99.90;;;;;;5083055;28;20042;-79
2021/12/12 07:43:30;;;;;;;16.67;12.20;;;5.80;99.90;;;;;;5083448;28;20487;-82
2021/12/12 07:45:56;;;;;;;17.33;12.55;;;5.80;99.90;;;;;;5065608;28;20074;-79
2021/12/12 07:48:23;;;;;;;15.80;12.50;;;7.40;99.90;;;;;;5057379;28;20138;-84
2021/12/12 07:50:50;;;;;;;14.40;11.85;;;5.80;99.90;;;;;;5080412;28;20048;-84
2021/12/12 07:53:17;;;;;;;17.63;12.73;;;5.80;99.90;;;;;;5092295;28;20372;-84
2021/12/12 07:55:43;;;;;;;17.15;12.00;;;5.80;99.90;;;;;;5075509;28;20043;-81
2021/12/12 07:58:13;;;;;;;20.48;15.73;;;5.80;99.90;;;;;;5049890;28;20054;-84
2021/12/12 08:00:41;;;;;;;17.42;13.73;;;5.80;99.90;;;;;;5054717;28;20120;-80
2021/12/12 08:03:06;;;;;;;16.38;12.68;;;7.30;99.90;;;;;;5073426;28;20439;-83
2021/12/12 08:05:35;;;;;;;16.75;12.93;;;5.90;99.90;;;;;;5075532;28;20156;-84
2021/12/12 08:08:06;;;;;;;17.35;13.00;;;5.90;99.90;;;;;;5074985;28;20097;-84
2021/12/12 08:10:33;;;;;;;18.15;13.15;;;5.90;99.90;;;;;;5069006;28;20470;-85
2021/12/12 08:12:58;;;;;;;19.85;13.75;;;5.90;99.90;;;;;;5062862;28;20036;-79
2021/12/12 08:15:26;;;;;;;19.98;13.65;;;5.90;99.90;;;;;;5056661;28;20049;-78
2021/12/12 08:17:52;;;;;;;23.50;14.02;;;5.90;99.90;;;;;;5074336;28;20487;-79
2021/12/12 08:20:18;;;;;;;21.85;14.50;;;6.50;99.90;;;;;;5066666;28;20044;-83
2021/12/12 08:22:47;;;;;;;21.85;14.82;;;5.90;99.90;;;;;;5072745;28;20032;-84
2021/12/12 08:25:16;;;;;;;23.35;15.68;;;5.90;99.90;;;;;;5073967;28;20052;-78
2021/12/12 08:27:42;;;;;;;22.08;15.65;;;5.90;99.90;;;;;;5056412;28;20498;-79
2021/12/12 08:30:10;;;;;;;21.17;13.98;;;6.00;99.90;;;;;;5064580;28;20421;-83
2021/12/12 08:32:37;;;;;;;32.15;21.15;;;6.00;99.90;;;;;;5085877;28;20043;-85
2021/12/12 08:35:05;;;;;;;25.52;17.23;;;6.00;99.90;;;;;;5086771;28;20129;-83
2021/12/12 08:37:31;;;;;;;26.95;16.55;;;6.10;99.90;;;;;;5068324;28;20061;-78
2021/12/12 08:39:57;;;;;;;22.73;14.63;;;6.00;99.90;;;;;;5079629;28;20047;-83
2021/12/12 08:42:26;;;;;;;27.23;16.15;;;6.10;99.90;;;;;;5069671;28;20057;-78
2021/12/12 08:44:55;;;;;;;22.08;15.57;;;6.10;99.90;;;;;;5067400;28;20278;-83
2021/12/12 08:47:21;;;;;;;29.88;17.50;;;6.00;99.90;;;;;;4700448;28;10000136;-82
2021/12/12 08:49:47;;;;;;;27.13;16.42;;;6.20;99.90;;;;;;5076860;28;20042;-78
2021/12/12 08:52:19;;;;;;;30.98;17.05;;;5.70;99.90;;;;;;5072634;28;20086;-77
2021/12/12 08:54:49;;;;;;;26.90;16.45;;;6.20;99.90;;;;;;5027296;28;20095;-82
2021/12/12 08:57:38;;;;;;;30.15;17.40;;;6.20;99.90;;;;;;5059553;28;20189;-81
2021/12/12 09:00:09;;;;;;;31.55;18.58;;;6.30;99.90;;;;;;5055666;28;20445;-79
2021/12/12 09:02:35;;;;;;;36.83;19.42;;;6.40;99.90;;;;;;5058751;28;20960;-77
2021/12/12 09:05:09;;;;;;;39.47;19.98;;;6.40;99.90;;;;;;5060245;28;20038;-80
2021/12/12 09:07:44;;;;;;;34.55;19.73;;;6.40;99.90;;;;;;5069113;28;20043;-82
2021/12/12 09:10:50;;;;;;;40.47;20.27;;;6.50;99.90;;;;;;5055636;28;20084;-83
2021/12/12 09:13:23;;;;;;;42.72;19.60;;;7.60;99.90;;;;;;5037044;28;20074;-78
2021/12/12 09:15:58;;;;;;;36.90;19.23;;;6.50;99.90;;;;;;5028725;28;20061;-83
2021/12/12 09:18:43;;;;;;;37.45;20.85;;;6.50;99.90;;;;;;5044368;28;20054;-82
2021/12/12 09:21:11;;;;;;;;;;;6.60;99.90;;;;;;5039057;28;20050;-80
2021/12/12 09:23:50;;;;;;;62.08;24.30;;;6.60;99.90;;;;;;5059896;28;20348;-82
2021/12/12 09:26:23;;;;;;;36.05;19.40;;;6.70;99.90;;;;;;5059798;28;20046;-82
2021/12/12 09:29:16;;;;;;;48.50;25.90;;;6.70;99.90;;;;;;5040527;28;20054;-83
2021/12/12 09:32:01;;;;;;;61.05;25.60;;;6.90;99.90;;;;;;5069175;28;20486;-83
2021/12/12 09:34:57;;;;;;;54.60;25.38;;;6.90;99.90;;;;;;5101738;28;20047;-82
2021/12/12 09:37:33;;;;;;;60.17;25.15;;;6.90;99.90;;;;;;5035373;28;20056;-80
2021/12/12 09:40:20;;;;;;;52.15;25.58;;;7.00;99.90;;;;;;5068442;28;20491;-80
2021/12/12 09:43:15;;;;;;;59.83;25.17;;;7.00;99.90;;;;;;5075953;28;20065;-80
2021/12/12 09:45:45;;;;;;;64.28;27.10;;;7.00;99.90;;;;;;5053971;28;20077;-80
2021/12/12 09:52:01;;;;;;;60.35;26.63;;;7.10;99.90;;;;;;5069820;28;20167;-80
2021/12/12 09:54:45;;;;;;;74.18;28.50;;;7.10;99.90;;;;;;5068075;28;20435;-79
2021/12/12 09:57:37;;;;;;;72.22;29.10;;;7.10;99.90;;;;;;5073080;28;20507;-80
2021/12/12 10:00:16;;;;;;;86.40;30.85;;;7.20;99.90;;;;;;5066052;28;20058;-81
2021/12/12 10:02:55;;;;;;;71.68;29.48;;;7.20;99.90;;;;;;5058235;28;20057;-80
2021/12/12 10:05:49;;;;;;;60.58;25.20;;;7.20;99.90;;;;;;5067375;28;20041;-78
2021/12/12 10:08:39;;;;;;;63.80;25.30;;;7.20;99.90;;;;;;5075402;28;20040;-78
2021/12/12 10:11:10;;;;;;;51.60;24.35;;;7.30;99.90;;;;;;5053338;28;20054;-79
2021/12/12 10:14:01;;;;;;;55.88;23.65;;;7.30;99.90;;;;;;5060700;28;20082;-80
2021/12/12 10:16:49;;;;;;;46.10;22.52;;;7.30;99.90;;;;;;5059969;28;20103;-78
2021/12/12 10:19:35;;;;;;;52.90;22.92;;;7.40;99.90;;;;;;5060791;28;20065;-81
2021/12/12 10:22:45;;;;;;;55.30;25.35;;;7.40;99.90;;;;;;5064255;28;20401;-81
2021/12/12 10:25:18;;;;;;;54.58;24.08;;;7.40;99.90;;;;;;5077897;28;20048;-81
2021/12/12 10:27:51;;;;;;;54.40;24.35;;;7.40;99.90;;;;;;5077369;28;20044;-80
2021/12/12 10:30:24;;;;;;;59.30;26.08;;;7.50;99.90;;;;;;5056816;28;20133;-81
2021/12/12 10:33:14;;;;;;;61.60;26.47;;;7.50;99.90;;;;;;5075018;28;20136;-80
2021/12/12 10:36:12;;;;;;;55.65;25.08;;;7.60;99.90;;;;;;5078134;28;20045;-80
2021/12/12 10:39:00;;;;;;;56.47;25.33;;;7.60;99.90;;;;;;5011039;28;20073;-80
2021/12/12 10:41:36;;;;;;;77.40;27.23;;;7.60;99.90;;;;;;5053526;28;20081;-80
2021/12/12 10:44:25;;;;;;;64.93;27.23;;;7.70;99.90;;;;;;5037281;28;20517;-78
2021/12/12 10:47:09;;;;;;;73.32;27.05;;;7.60;99.90;;;;;;5036597;28;20052;-79
2021/12/12 10:50:02;;;;;;;61.17;25.43;;;7.70;99.90;;;;;;5067633;28;20078;-79
2021/12/12 10:52:51;;;;;;;55.30;24.90;;;7.80;99.90;;;;;;5067263;28;20296;-81
2021/12/12 10:55:22;;;;;;;53.28;23.38;;;7.80;99.90;;;;;;5072881;28;20074;-79
2021/12/12 10:58:18;;;;;;;65.38;25.27;;;7.90;99.90;;;;;;5091099;28;20703;-80
2021/12/12 11:00:47;;;;;;;67.10;25.63;;;7.80;99.90;;;;;;5067234;28;20646;-81
2021/12/12 11:03:48;;;;;;;39.10;18.67;;;7.80;99.90;;;;;;5087362;28;20065;-80
2021/12/12 11:06:39;;;;;;;85.60;28.17;;;8.00;99.90;;;;;;5059691;28;20090;-79
2021/12/12 11:09:15;;;;;;;61.58;24.77;;;7.90;99.90;;;;;;5079273;28;20049;-78
2021/12/12 11:12:06;;;;;;;50.13;22.77;;;7.90;99.90;;;;;;5090118;28;20047;-79
2021/12/12 11:14:38;;;;;;;53.90;23.48;;;8.00;99.90;;;;;;5076080;28;20075;-81
2021/12/12 11:17:21;;;;;;;66.35;25.50;;;8.00;99.90;;;;;;5075161;28;20044;-79
2021/12/12 11:19:54;;;;;;;62.70;24.20;;;8.10;99.90;;;;;;5073557;28;20125;-78
2021/12/12 11:22:40;;;;;;;40.40;19.20;;;8.10;99.90;;;;;;5049737;28;20074;-78
2021/12/12 11:25:18;;;;;;;80.03;28.60;;;8.10;99.90;;;;;;5076249;28;20045;-79
2021/12/12 11:27:53;;;;;;;53.50;22.58;;;8.10;99.90;;;;;;5081341;28;20044;-80
2021/12/12 11:30:29;;;;;;;55.80;23.05;;;8.20;99.90;;;;;;5050855;28;20069;-76
2021/12/12 11:32:57;;;;;;;70.97;26.90;;;8.10;99.90;;;;;;5036872;28;20073;-77
2021/12/12 11:35:27;;;;;;;78.10;27.92;;;8.10;99.90;;;;;;5079813;28;20558;-78
2021/12/12 11:38:16;;;;;;;55.28;22.88;;;8.20;99.90;;;;;;5090851;28;20059;-76
2021/12/12 11:40:52;;;;;;;56.20;21.55;;;8.20;99.90;;;;;;5067494;28;20081;-81
2021/12/12 11:43:56;;;;;;;46.60;21.75;;;8.10;99.90;;;;;;5088563;28;20455;-80
2021/12/12 11:46:39;;;;;;;46.97;20.73;;;8.20;99.90;;;;;;5069612;28;20046;-79
2021/12/12 11:49:25;;;;;;;38.72;19.23;;;8.20;99.90;;;;;;5049488;28;20054;-80
2021/12/12 11:51:58;;;;;;;37.17;18.80;;;8.30;99.90;;;;;;5082179;28;20483;-79
2021/12/12 11:54:41;;;;;;;44.43;19.00;;;8.30;99.90;;;;;;5071932;28;20128;-78
2021/12/12 11:57:13;;;;;;;56.05;20.88;;;8.30;99.90;;;;;;5069155;28;20039;-80
2021/12/12 12:00:06;;;;;;;50.33;20.90;;;8.30;99.90;;;;;;5088868;28;20077;-80
2021/12/12 12:02:40;;;;;;;44.72;18.90;;;8.30;99.90;;;;;;5054709;28;20041;-77
2021/12/12 12:05:31;;;;;;;35.05;17.60;;;8.30;99.90;;;;;;5070774;28;20043;-77
2021/12/12 12:08:01;;;;;;;44.22;19.10;;;8.30;99.90;;;;;;5075744;28;20058;-77
2021/12/12 12:10:37;;;;;;;53.55;21.55;;;8.30;99.90;;;;;;5071472;28;20418;-80
2021/12/12 12:13:40;;;;;;;35.40;16.20;;;8.30;99.90;;;;;;5069033;28;20053;-81
2021/12/12 12:16:52;;;;;;;50.28;20.65;;;8.40;99.90;;;;;;5069799;28;20044;-77
2021/12/12 12:19:18;;;;;;;34.10;16.17;;;8.40;99.90;;;;;;5014646;28;20543;-79
2021/12/12 12:22:09;;;;;;;45.78;20.00;;;8.40;99.90;;;;;;5055796;28;20057;-79
2021/12/12 12:24:58;;;;;;;35.60;19.10;;;8.40;99.90;;;;;;5065242;28;20558;-79
2021/12/12 12:27:32;;;;;;;51.85;21.67;;;8.50;99.90;;;;;;5086335;28;20079;-78
2021/12/12 12:30:04;;;;;;;;;;;8.60;99.90;;;;;;5054516;28;20049;-77
2021/12/12 12:32:51;;;;;;;41.08;18.45;;;8.60;99.90;;;;;;5047600;28;20427;-80
2021/12/12 12:35:38;;;;;;;51.33;22.80;;;8.60;99.90;;;;;;5055777;28;20516;-79
2021/12/12 12:38:37;;;;;;;34.45;16.85;;;8.60;99.90;;;;;;5063956;28;20051;-78
2021/12/12 12:41:54;;;;;;;67.32;23.90;;;8.70;99.90;;;;;;5068662;28;20134;-78
2021/12/12 12:44:57;;;;;;;45.83;18.38;;;8.60;99.90;;;;;;5069644;28;20120;-80
2021/12/12 12:47:58;;;;;;;39.42;18.33;;;8.70;99.90;;;;;;5077633;28;20240;-79
2021/12/12 12:50:45;;;;;;;38.33;16.10;;;8.70;99.90;;;;;;5060236;28;20081;-81
2021/12/12 12:53:52;;;;;;;38.50;16.80;;;8.70;99.90;;;;;;5086206;28;20052;-80
2021/12/12 12:56:56;;;;;;;46.72;17.77;;;8.70;99.90;;;;;;5009921;28;20051;-79
2021/12/12 12:59:36;;;;;;;31.80;14.77;;;8.80;99.90;;;;;;5061809;28;20043;-80
2021/12/12 13:02:16;;;;;;;36.38;15.63;;;8.80;99.90;;;;;;5055531;28;20091;-81
2021/12/12 13:05:01;;;;;;;42.25;17.30;;;8.90;99.90;;;;;;5071184;28;20051;-79
2021/12/12 13:07:58;;;;;;;37.00;15.57;;;8.90;99.90;;;;;;5059516;28;20048;-81
2021/12/12 13:10:26;;;;;;;30.98;13.55;;;9.00;99.90;;;;;;5055416;28;20947;-84
2021/12/12 13:13:36;;;;;;;36.88;15.73;;;9.00;99.90;;;;;;5055817;28;20489;-80
2021/12/12 13:16:23;;;;;;;27.95;13.82;;;9.00;99.90;;;;;;4995399;28;20531;-81
2021/12/12 13:19:11;;;;;;;32.97;15.18;;;9.10;99.90;;;;;;4980593;28;20049;-83
2021/12/12 13:21:47;;;;;;;25.27;12.70;;;9.00;99.90;;;;;;5006076;28;20127;-80
2021/12/12 13:24:22;;;;;;;24.33;12.90;;;9.10;99.90;;;;;;5029584;28;20504;-79
2021/12/12 13:27:11;;;;;;;26.95;13.48;;;9.20;99.90;;;;;;5013103;28;20082;-82
2021/12/12 13:30:01;;;;;;;24.20;12.27;;;9.10;99.90;;;;;;5016830;28;20046;-82